Fir Grove, Oregon
Current Conditions -  °F | °C
As of 11:54 AM on Saturday 25 Oct 2014 (Local Time) from KEUG Reporting Station
Broken Clouds Broken Clouds  
Wind Chill: 65°   Ceiling: 6500
Heat Index: 65°   Visibility: 10mi
Dew Point: 52°   Wind: 30mph
Humidity: 63%   Direction: 180°S
Pressure: 29.44"   Gusts: 39mph
Location:  44.0685°N, 123.082°W
Report Text: KEUG 251854Z 18026G34KT 10SM FEW040 BKN065 BKN080 18/11 A2944 RMK AO2 PK WND 18037/1834 SLP968 VCSH SE-SW-W T01830111
Loading
Personal Weather Stations






























Interactive Weather Map
Tropical Storm Tracking
New forecast layout! Learn more

10-Day Weather Forecast

Advertisements
Track Severe Weather on mobile